Impacts METAR Board INFO
IDs:

KBOS - Boston/Logan Intl, MA, US

Updated at: 1157 UTC 18 Jan 2018
Potential Impact None Slight Moderate High
Time17/23Z 18/00Z 18/01Z 18/02Z 18/03Z 18/04Z 18/05Z 18/06Z 18/07Z 18/08Z 18/09Z 18/10Z 18/11Z
VIS2.5 4 2 6 7 7 10 10 10 10 10 10 10
CIG7 19 9 19 10 7 28 31 36 -- -- -- --
CoverOVCOVCOVCOVCOVCOVCOVCOVCBKNFEWFEWCLRCLR
FltCatIFRMVFRIFRMVFRMVFRIFRMVFRVFRVFRVFRVFRVFRVFR
WX-SN BR-SN BR-SN BR-SN BR-SN-SN--------------
WDir350320350330310300310320290290280290280
WSpd6 7 6 7 8 9 8 10 9 10 12 11 5
WGst-- -- -- -- -- -- -- -- -- -- -- -- --
Raw hourly METARs
KBOS 172254Z 35006KT 2 1/2SM -SN BR FEW004 BKN007 OVC011 00/M01 A3010 RMK AO2 SLP193 P0000 T00001006
KBOS 172354Z 32007KT 4SM R04R/6000VP6000FT -SN BR SCT006 OVC019 00/M01 A3010 RMK AO2 SNE2259B18 SLP192 P0000 60002 T00001006 10011 20000 56010
KBOS 180054Z 35006KT 2SM -SN BR FEW004 BKN009 OVC017 00/M01 A3008 RMK AO2 SLP185 P0001 T00001011
KBOS 180154Z 33007KT 6SM -SN BR FEW011 BKN019 OVC033 00/M02 A3008 RMK AO2 SLP185 P0000 T00001017
KBOS 180254Z 31008KT 7SM -SN BKN010 OVC018 00/M02 A3008 RMK AO2 FZDZB08E52 SLP184 PCPN VRY LGT P0000 60001 T00001017 56007
KBOS 180354Z 30009KT 7SM -SN OVC007 00/M01 A3007 RMK AO2 SNE16B48 SLP183 PCPN VRY LGT P0000 T00001011
KBOS 180454Z 31008KT 10SM FEW007 SCT015 OVC028 00/M02 A3006 RMK AO2 SNE17 SLP178 P0000 T00001022 400111006
KBOS 180554Z 32010KT 10SM FEW007 FEW015 OVC031 M01/M03 A3002 RMK AO2 SLP165 60001 T10061028 10006 21006 58020
KBOS 180654Z 29009KT 10SM FEW014 SCT023 BKN036 M01/M04 A3002 RMK AO2 SLP164 T10111039
KBOS 180754Z 29010KT 10SM FEW017 M02/M06 A3000 RMK AO2 SLP159 T10221056
KBOS 180854Z 28012KT 10SM FEW017 M03/M06 A2999 RMK AO2 SLP155 T10331061 58009
KBOS 180954Z 29011KT 10SM CLR M04/M08 A2998 RMK AO2 SLP150 T10441083
KBOS 181054Z 28005KT 10SM CLR M05/M09 A2999 RMK AO2 SLP154 T10501094